createdAt,value
2023-05-22T00:00:47.039Z,5.32
2023-05-22T00:05:58.917Z,5.88
2023-05-22T00:11:04.381Z,5.88
2023-05-22T00:16:13.198Z,5.82
2023-05-22T00:21:22.170Z,5.68
2023-05-22T00:26:27.287Z,4.93
2023-05-22T00:31:31.000Z,5.72
2023-05-22T00:36:39.728Z,5.82
2023-05-22T00:41:50.253Z,6.47
2023-05-22T00:46:54.040Z,6.28
2023-05-22T00:52:03.323Z,6.07
2023-05-22T00:57:14.292Z,5.97
2023-05-22T01:02:23.520Z,6.13
2023-05-22T01:07:32.403Z,6.03
2023-05-22T01:12:49.723Z,6.03
2023-05-22T01:18:12.636Z,7.20
2023-05-22T01:23:59.042Z,6.25
2023-05-22T01:29:24.764Z,6.30
2023-05-22T01:34:37.270Z,6.72
2023-05-22T01:39:47.432Z,6.60
2023-05-22T01:44:56.693Z,7.00
2023-05-22T01:50:01.833Z,5.72
2023-05-22T01:55:14.620Z,6.40
2023-05-22T02:00:21.880Z,5.80
2023-05-22T02:05:31.887Z,6.72
2023-05-22T02:10:42.068Z,6.53
2023-05-22T02:15:52.909Z,6.63
2023-05-22T02:20:58.521Z,6.70
2023-05-22T02:26:07.618Z,7.05
2023-05-22T02:31:18.295Z,6.30
2023-05-22T02:36:30.974Z,6.10
2023-05-22T02:41:35.050Z,5.78
2023-05-22T02:46:43.888Z,6.47
2023-05-22T02:51:49.162Z,6.63
2023-05-22T02:56:57.914Z,5.80
2023-05-22T03:02:07.381Z,6.15
2023-05-22T03:07:17.501Z,5.68
2023-05-22T03:12:26.284Z,5.45
2023-05-22T03:17:30.128Z,6.20
2023-05-22T03:22:35.279Z,5.68
2023-05-22T03:27:46.360Z,5.33
2023-05-22T03:32:56.485Z,5.90
2023-05-22T03:38:06.827Z,5.70
2023-05-22T03:43:15.804Z,6.28
2023-05-22T03:48:25.643Z,5.82
2023-05-22T03:53:35.914Z,5.95
2023-05-22T03:58:44.678Z,5.60
2023-05-22T04:03:53.484Z,5.15
2023-05-22T04:09:05.283Z,5.55
2023-05-22T04:14:10.045Z,5.57
2023-05-22T04:19:18.816Z,4.75
2023-05-22T04:24:25.515Z,4.75
2023-05-22T04:29:36.377Z,5.32
2023-05-22T04:34:41.489Z,5.15
2023-05-22T04:39:53.599Z,4.65
2023-05-22T04:44:58.209Z,4.32
2023-05-22T04:50:02.723Z,4.18
2023-05-22T04:55:13.665Z,4.05
2023-05-22T05:00:18.276Z,3.90
2023-05-22T05:05:28.376Z,3.60
2023-05-22T05:10:34.551Z,3.25
2023-05-22T05:15:43.742Z,3.45
2023-05-22T05:20:52.578Z,3.08
2023-05-22T05:25:57.696Z,3.17
2023-05-22T05:31:07.839Z,3.63
2023-05-22T05:36:17.248Z,3.20
2023-05-22T05:41:27.768Z,2.70
2023-05-22T05:46:43.680Z,2.95
2023-05-22T05:51:53.647Z,3.15
2023-05-22T06:02:09.127Z,2.78
2023-05-22T06:07:18.141Z,2.35
2023-05-22T06:12:30.150Z,3.10
2023-05-22T06:22:47.524Z,2.33
2023-05-22T06:27:57.807Z,2.70
2023-05-22T06:33:07.375Z,2.10
2023-05-22T06:38:11.390Z,2.55
2023-05-22T06:43:23.719Z,2.50
2023-05-22T06:48:37.000Z,2.60
2023-05-22T06:54:08.217Z,2.33
2023-05-22T06:59:15.250Z,2.42
2023-05-22T07:04:24.818Z,2.47
2023-05-22T07:09:47.633Z,2.42
2023-05-22T07:15:00.174Z,2.47
2023-05-22T07:20:06.960Z,2.63
2023-05-22T07:25:12.906Z,2.58
2023-05-22T07:30:18.189Z,2.45
2023-05-22T07:35:28.590Z,2.95
2023-05-22T07:40:37.861Z,2.70
2023-05-22T07:45:48.423Z,2.65
2023-05-22T07:50:54.707Z,3.30
2023-05-22T07:55:58.598Z,2.90
2023-05-22T08:01:09.881Z,2.47
2023-05-22T08:06:15.494Z,2.72
2023-05-22T08:11:26.211Z,3.03
2023-05-22T08:16:36.519Z,2.80
2023-05-22T08:21:45.736Z,2.88
2023-05-22T08:26:54.455Z,2.67
2023-05-22T08:31:59.956Z,2.60
2023-05-22T08:37:09.503Z,2.15
2023-05-22T08:47:24.520Z,2.60
2023-05-22T08:52:38.529Z,3.38
2023-05-22T08:57:47.553Z,3.13
2023-05-22T09:02:59.026Z,3.10
2023-05-22T09:08:19.782Z,3.17
2023-05-22T09:13:30.649Z,3.00
2023-05-22T09:18:42.466Z,2.85
2023-05-22T09:23:52.200Z,2.85
2023-05-22T09:28:57.156Z,2.60
2023-05-22T09:34:08.212Z,2.78
2023-05-22T09:39:17.063Z,3.55
2023-05-22T09:44:21.672Z,3.05
2023-05-22T09:49:31.925Z,3.22
2023-05-22T09:54:55.709Z,2.97
2023-05-22T10:00:09.808Z,3.60
2023-05-22T10:05:23.085Z,3.10
2023-05-22T10:10:27.075Z,2.75
2023-05-22T10:15:32.165Z,3.20
2023-05-22T10:20:42.696Z,2.97
2023-05-22T10:25:51.886Z,2.83
2023-05-22T10:31:06.028Z,3.17
2023-05-22T10:37:09.588Z,2.80
2023-05-22T10:42:20.505Z,3.37
2023-05-22T10:47:29.714Z,2.88
2023-05-22T10:52:41.176Z,3.40
2023-05-22T10:57:50.055Z,3.05
2023-05-22T11:03:17.370Z,3.10
2023-05-22T11:08:50.863Z,3.35
2023-05-22T11:14:04.425Z,3.05
2023-05-22T11:19:23.481Z,3.78
2023-05-22T11:24:35.861Z,3.20
2023-05-22T11:29:44.570Z,3.10
2023-05-22T11:34:50.148Z,3.07
2023-05-22T11:40:05.943Z,2.90
2023-05-22T11:45:10.831Z,3.92
2023-05-22T11:50:33.403Z,2.90
2023-05-22T11:55:51.000Z,2.95
2023-05-22T12:00:59.282Z,2.90
2023-05-22T12:06:08.643Z,3.03
2023-05-22T12:11:18.864Z,2.78
2023-05-22T12:16:27.734Z,3.00
2023-05-22T12:21:36.928Z,3.22
2023-05-22T12:26:52.200Z,2.60
2023-05-22T12:32:03.859Z,2.80
2023-05-22T12:37:19.657Z,2.97
2023-05-22T12:42:25.168Z,3.10
2023-05-22T12:47:33.917Z,2.55
2023-05-22T12:52:37.694Z,3.03
2023-05-22T12:57:42.888Z,3.00
2023-05-22T13:02:51.668Z,2.80
2023-05-22T13:08:01.104Z,3.10
2023-05-22T13:13:06.288Z,3.42
2023-05-22T13:18:15.110Z,2.80
2023-05-22T13:23:23.833Z,3.63
2023-05-22T13:28:29.153Z,3.40
2023-05-22T13:33:38.162Z,3.20
